createdAt,value
2019-04-27T00:01:14.494Z,-89
2019-04-27T00:04:04.396Z,-88
2019-04-27T00:06:38.336Z,-89
2019-04-27T00:09:19.388Z,-90
2019-04-27T00:11:57.324Z,-90
2019-04-27T00:14:28.428Z,-89
2019-04-27T00:17:09.571Z,-89
2019-04-27T00:19:58.260Z,-89
2019-04-27T00:22:38.285Z,-89
2019-04-27T00:25:09.514Z,-89
2019-04-27T00:27:41.403Z,-88
2019-04-27T00:30:13.869Z,-88
2019-04-27T00:32:45.306Z,-89
2019-04-27T00:35:21.392Z,-89
2019-04-27T00:38:29.424Z,-89
2019-04-27T00:41:06.118Z,-89
2019-04-27T00:43:37.296Z,-89
2019-04-27T00:46:08.757Z,-88
2019-04-27T00:48:39.875Z,-88
2019-04-27T00:51:14.240Z,-89
2019-04-27T00:53:43.949Z,-88
2019-04-27T00:56:30.332Z,-88
2019-04-27T00:59:20.207Z,-89
2019-04-27T01:02:09.014Z,-89
2019-04-27T01:04:40.465Z,-88
2019-04-27T01:07:11.876Z,-89
2019-04-27T01:09:42.980Z,-89
2019-04-27T01:12:14.489Z,-89
2019-04-27T01:14:45.595Z,-88
2019-04-27T01:17:16.691Z,-89
2019-04-27T01:19:49.377Z,-89
2019-04-27T01:22:20.667Z,-88
2019-04-27T01:24:51.752Z,-89
2019-04-27T01:27:30.147Z,-89
2019-04-27T01:30:01.329Z,-89
2019-04-27T01:32:34.008Z,-88
2019-04-27T01:35:05.236Z,-88
2019-04-27T01:37:36.370Z,-89
2019-04-27T01:40:09.716Z,-89
2019-04-27T01:42:40.711Z,-89
2019-04-27T01:45:12.007Z,-89
2019-04-27T01:47:43.157Z,-89
2019-04-27T01:50:14.526Z,-90
2019-04-27T01:52:45.779Z,-87
2019-04-27T01:55:18.745Z,-87
2019-04-27T01:57:49.987Z,-86
2019-04-27T02:00:55.825Z,-88
2019-04-27T02:03:36.267Z,-87
2019-04-27T02:06:09.196Z,-88
2019-04-27T02:08:40.448Z,-88
2019-04-27T02:11:11.902Z,-88
2019-04-27T02:13:43.054Z,-88
2019-04-27T02:16:14.188Z,-87
2019-04-27T02:18:46.132Z,-87
2019-04-27T02:21:17.231Z,-89
2019-04-27T02:23:49.720Z,-88
2019-04-27T02:26:21.660Z,-88
2019-04-27T02:29:29.558Z,-89
2019-04-27T02:32:29.152Z,-88
2019-04-27T02:35:02.427Z,-89
2019-04-27T02:37:33.583Z,-87
2019-04-27T02:40:06.585Z,-88
2019-04-27T02:42:43.527Z,-87
2019-04-27T02:45:14.640Z,-87
2019-04-27T02:47:45.764Z,-87
2019-04-27T02:50:19.209Z,-87
2019-04-27T02:52:50.236Z,-87
2019-04-27T02:55:21.622Z,-88
2019-04-27T02:57:52.868Z,-87
2019-04-27T03:00:24.065Z,-87
2019-04-27T03:03:02.228Z,-88
2019-04-27T03:05:32.581Z,-88
2019-04-27T03:08:03.719Z,-90
2019-04-27T03:10:36.001Z,-88
2019-04-27T03:13:17.143Z,-87
2019-04-27T03:16:11.407Z,-87
2019-04-27T03:19:13.405Z,-88
2019-04-27T03:21:51.488Z,-88
2019-04-27T03:24:41.443Z,-88
2019-04-27T03:27:14.605Z,-88
2019-04-27T03:29:46.629Z,-88
2019-04-27T03:32:22.063Z,-87
2019-04-27T03:34:52.449Z,-87
2019-04-27T03:37:23.556Z,-87
2019-04-27T03:39:55.477Z,-87
2019-04-27T03:42:26.623Z,-87
2019-04-27T03:45:00.376Z,-88
2019-04-27T03:47:30.994Z,-88
2019-04-27T03:50:02.202Z,-87
2019-04-27T03:52:41.229Z,-89
2019-04-27T03:55:19.751Z,-87
2019-04-27T03:58:12.051Z,-87
2019-04-27T04:00:42.798Z,-88
2019-04-27T04:03:13.944Z,-88
2019-04-27T04:05:45.113Z,-87
2019-04-27T04:08:16.514Z,-87
2019-04-27T04:10:52.839Z,-88
2019-04-27T04:13:29.603Z,-87
2019-04-27T04:16:22.538Z,-86
2019-04-27T04:19:01.427Z,-87
2019-04-27T04:21:32.646Z,-90
2019-04-27T04:24:04.017Z,-89
2019-04-27T04:26:35.136Z,-90
2019-04-27T04:29:06.425Z,-90
2019-04-27T04:31:40.540Z,-90
2019-04-27T04:34:12.189Z,-90
2019-04-27T04:36:43.473Z,-90
2019-04-27T04:39:14.859Z,-90
2019-04-27T04:41:59.673Z,-90
2019-04-27T04:45:00.422Z,-90
2019-04-27T04:47:40.718Z,-88
2019-04-27T04:50:15.256Z,-90
2019-04-27T04:52:45.182Z,-90
2019-04-27T04:55:16.345Z,-89
2019-04-27T04:57:49.321Z,-88
2019-04-27T05:00:20.427Z,-90
2019-04-27T05:02:51.567Z,-89
2019-04-27T05:05:22.820Z,-89
2019-04-27T05:07:53.908Z,-89
2019-04-27T05:10:25.043Z,-86
2019-04-27T05:12:56.140Z,-89
2019-04-27T05:15:27.254Z,-89
2019-04-27T05:17:59.171Z,-88
2019-04-27T05:20:36.570Z,-89
2019-04-27T05:23:09.644Z,-89
2019-04-27T05:25:41.126Z,-88
2019-04-27T05:28:12.216Z,-88
2019-04-27T05:30:43.316Z,-88
2019-04-27T05:33:15.177Z,-88
2019-04-27T05:35:46.280Z,-89
2019-04-27T05:38:19.127Z,-88
2019-04-27T05:40:50.186Z,-89
2019-04-27T05:43:25.655Z,-89
2019-04-27T05:46:56.656Z,-89
2019-04-27T05:49:52.282Z,-89
2019-04-27T05:52:29.999Z,-89
2019-04-27T05:55:01.288Z,-89
2019-04-27T05:57:32.394Z,-89
2019-04-27T06:00:04.199Z,-89
2019-04-27T06:02:35.790Z,-90
2019-04-27T06:05:08.853Z,-89
2019-04-27T06:07:40.279Z,-89
2019-04-27T06:10:11.698Z,-89
2019-04-27T06:12:42.874Z,-89
2019-04-27T06:15:14.066Z,-89
2019-04-27T06:17:45.187Z,-89
2019-04-27T06:20:16.657Z,-89
2019-04-27T06:22:48.891Z,-87
2019-04-27T06:25:21.805Z,-88
2019-04-27T06:27:54.664Z,-89
2019-04-27T06:30:25.747Z,-89
2019-04-27T06:32:57.130Z,-91
2019-04-27T06:35:28.821Z,-91
2019-04-27T06:38:00.053Z,-90
2019-04-27T06:40:31.230Z,-91
2019-04-27T06:43:02.765Z,-91
2019-04-27T06:45:34.450Z,-90
2019-04-27T06:48:05.652Z,-90
2019-04-27T06:50:36.883Z,-89
2019-04-27T06:53:09.072Z,-89
2019-04-27T06:55:40.298Z,-90
2019-04-27T06:58:11.499Z,-92
2019-04-27T07:00:42.603Z,-90
2019-04-27T07:03:13.786Z,-89
2019-04-27T07:05:44.927Z,-91
2019-04-27T07:08:16.126Z,-91
2019-04-27T07:10:49.061Z,-91
2019-04-27T07:13:20.338Z,-89
2019-04-27T07:15:51.747Z,-90
2019-04-27T07:18:22.915Z,-90
2019-04-27T07:20:54.035Z,-91
2019-04-27T07:23:25.184Z,-90
2019-04-27T07:25:56.309Z,-89
2019-04-27T07:28:28.633Z,-90
2019-04-27T07:30:59.892Z,-91
2019-04-27T07:33:31.121Z,-90
2019-04-27T07:36:02.651Z,-90
2019-04-27T07:38:33.912Z,-90
2019-04-27T07:41:05.039Z,-90
2019-04-27T07:43:49.414Z,-90
2019-04-27T07:46:20.752Z,-90
2019-04-27T07:48:51.954Z,-90
2019-04-27T07:51:31.611Z,-90
2019-04-27T07:53:56.246Z,-89
2019-04-27T07:56:29.101Z,-91
2019-04-27T07:59:00.356Z,-90
2019-04-27T08:01:31.819Z,-90
2019-04-27T08:04:03.032Z,-91
2019-04-27T08:06:34.289Z,-91
2019-04-27T08:09:06.412Z,-91
2019-04-27T08:11:39.085Z,-91
2019-04-27T08:14:10.582Z,-91
2019-04-27T08:16:41.815Z,-91
2019-04-27T08:19:13.157Z,-91
2019-04-27T08:21:46.481Z,-91
2019-04-27T08:24:17.358Z,-90
2019-04-27T08:27:02.822Z,-89
2019-04-27T08:29:41.776Z,-89
2019-04-27T08:32:16.084Z,-90
2019-04-27T08:34:47.353Z,-93
2019-04-27T08:37:18.841Z,-91
2019-04-27T08:39:51.143Z,-90
2019-04-27T08:42:22.663Z,-90
2019-04-27T08:44:53.997Z,-90
2019-04-27T08:47:25.410Z,-91
2019-04-27T08:49:56.637Z,-90
2019-04-27T08:52:29.014Z,-90
2019-04-27T08:55:00.568Z,-89
2019-04-27T08:57:32.140Z,-89
2019-04-27T09:00:03.485Z,-90
2019-04-27T09:02:44.041Z,-90
2019-04-27T09:05:09.536Z,-89
2019-04-27T09:07:46.387Z,-90
2019-04-27T09:10:29.628Z,-90
2019-04-27T09:13:22.975Z,-90
2019-04-27T09:16:00.067Z,-89
2019-04-27T09:18:32.777Z,-89
2019-04-27T09:21:04.375Z,-90
2019-04-27T09:23:35.657Z,-91
2019-04-27T09:26:07.013Z,-92
2019-04-27T09:28:38.814Z,-91
2019-04-27T09:31:10.286Z,-92
2019-04-27T09:33:41.496Z,-89
2019-04-27T09:36:12.750Z,-92
2019-04-27T09:38:43.950Z,-92
2019-04-27T09:41:16.973Z,-91
2019-04-27T09:43:48.274Z,-91
2019-04-27T09:46:19.493Z,-92
2019-04-27T09:48:50.695Z,-92
2019-04-27T09:51:21.939Z,-92
2019-04-27T09:53:53.203Z,-92
2019-04-27T09:56:26.098Z,-92
2019-04-27T09:58:58.011Z,-92
2019-04-27T10:01:29.342Z,-92
2019-04-27T10:04:00.559Z,-92
2019-04-27T10:06:31.816Z,-92
2019-04-27T10:09:03.182Z,-92
2019-04-27T10:11:35.667Z,-92
2019-04-27T10:14:08.024Z,-93
2019-04-27T10:16:39.254Z,-93
2019-04-27T10:19:10.582Z,-92
2019-04-27T10:21:43.211Z,-92
2019-04-27T10:24:15.626Z,-92
2019-04-27T10:26:46.941Z,-91
2019-04-27T10:29:18.481Z,-91
2019-04-27T10:31:50.062Z,-91
2019-04-27T10:34:23.309Z,-91
2019-04-27T10:36:55.929Z,-91
2019-04-27T10:39:27.825Z,-90
2019-04-27T10:41:59.268Z,-91
2019-04-27T10:44:30.641Z,-91
2019-04-27T10:47:01.885Z,-92
2019-04-27T10:49:33.343Z,-91
2019-04-27T10:52:05.886Z,-92
2019-04-27T10:54:37.462Z,-92
2019-04-27T10:57:08.695Z,-92
2019-04-27T10:59:39.967Z,-92
2019-04-27T11:02:11.188Z,-91
2019-04-27T11:04:56.600Z,-91
2019-04-27T11:07:32.657Z,-92
2019-04-27T11:10:05.597Z,-91
